Time;durP1;ratioP1;P1;durP2;ratioP2;P2;SDS_P1;SDS_P2;PMS_P1;PMS_P2;Temp;Humidity;BMP_temperature;BMP_pressure;BME280_temperature;BME280_humidity;BME280_pressure;Samples;Min_cycle;Max_cycle;Signal;HPM_P1;HPM_P2
2021/12/07 00:02:07;;;;;;;15.48;8.13;;;;;;;0.51;100.00;100208.91;5034889;28;20033;-74
2021/12/07 00:04:34;;;;;;;14.70;8.30;;;;;;;0.52;100.00;100209.72;5035418;28;20053;-74
2021/12/07 00:07:00;;;;;;;15.45;8.13;;;;;;;0.52;100.00;100202.88;5034176;28;20068;-75
2021/12/07 00:09:25;;;;;;;13.75;7.22;;;;;;;0.54;100.00;100208.69;5011800;28;20060;-73
2021/12/07 00:11:52;;;;;;;17.80;7.60;;;;;;;0.67;100.00;100210.41;5032364;28;20482;-73
2021/12/07 00:14:25;;;;;;;13.98;8.15;;;;;;;0.66;100.00;100208.75;5025954;28;20033;-74
2021/12/07 00:16:54;;;;;;;16.15;7.93;;;;;;;0.74;100.00;100209.06;5025285;28;20052;-74
2021/12/07 00:19:20;;;;;;;12.20;6.85;;;;;;;0.73;100.00;100213.31;5029929;28;20257;-73
2021/12/07 00:21:46;;;;;;;13.57;6.78;;;;;;;0.85;100.00;100219.34;5027391;28;20400;-73
2021/12/07 00:24:13;;;;;;;11.63;6.43;;;;;;;0.84;100.00;100216.88;5023847;28;20475;-74
2021/12/07 00:26:41;;;;;;;9.55;5.78;;;;;;;0.78;100.00;100216.38;5024434;28;20526;-73
2021/12/07 00:29:09;;;;;;;13.52;6.30;;;;;;;0.76;100.00;100228.44;5034276;28;20021;-74
2021/12/07 00:31:40;;;;;;;12.73;6.63;;;;;;;0.86;100.00;100217.59;5023744;28;20065;-73
2021/12/07 00:36:44;;;;;;;10.80;6.57;;;;;;;0.86;99.67;100226.06;5037153;28;20771;-73
2021/12/07 00:39:10;;;;;;;14.98;7.38;;;;;;;0.87;99.51;100220.03;5029889;28;20076;-73
2021/12/07 00:41:35;;;;;;;12.43;7.18;;;;;;;0.95;99.34;100227.97;5030419;28;20544;-73
2021/12/07 00:44:02;;;;;;;14.82;7.97;;;;;;;0.86;99.54;100227.78;5028508;28;20098;-73
2021/12/07 00:46:29;;;;;;;12.40;7.88;;;;;;;0.90;99.42;100231.75;5027800;28;20061;-73
2021/12/07 00:48:55;;;;;;;13.95;7.93;;;;;;;0.83;99.94;100233.94;5037493;28;20041;-73
2021/12/07 00:51:21;;;;;;;16.65;9.05;;;;;;;0.96;99.82;100233.88;5023479;28;20543;-73
2021/12/07 00:53:47;;;;;;;16.65;9.95;;;;;;;1.12;99.61;100238.72;5021576;28;20033;-74
2021/12/07 00:56:12;;;;;;;17.23;9.88;;;;;;;1.07;99.67;100243.34;5021777;28;20029;-73
2021/12/07 00:58:39;;;;;;;20.00;10.85;;;;;;;1.04;99.88;100249.50;5040346;28;20037;-74
2021/12/07 01:01:08;;;;;;;21.52;12.15;;;;;;;1.04;100.00;100251.25;5029787;28;20059;-73
2021/12/07 01:03:34;;;;;;;21.75;13.48;;;;;;;1.13;100.00;100250.56;5029280;28;20041;-73
2021/12/07 01:06:18;;;;;;;25.00;14.13;;;;;;;1.22;100.00;100256.78;5033098;28;20163;-73
2021/12/07 01:24:57;;;;;;;41.35;20.77;;;;;;;1.48;100.00;100285.59;5029696;28;20041;-74
2021/12/07 01:27:25;;;;;;;38.75;22.35;;;;;;;1.54;100.00;100300.47;5039072;28;20518;-73
2021/12/07 01:33:10;;;;;;;42.42;23.30;;;;;;;1.66;100.00;100302.16;5038099;28;20075;-73
2021/12/07 01:35:41;;;;;;;42.77;22.67;;;;;;;1.71;100.00;100299.25;5032362;28;20040;-73
2021/12/07 02:01:46;;;;;;;41.60;19.20;;;;;;;2.20;100.00;100344.25;5045024;28;20025;-74
2021/12/07 02:04:12;;;;;;;40.08;18.23;;;;;;;2.23;100.00;100359.41;5029076;28;20063;-73
2021/12/07 02:06:37;;;;;;;36.67;17.77;;;;;;;2.11;100.00;100394.38;5033691;28;20064;-72
2021/12/07 02:09:05;;;;;;;37.90;18.83;;;;;;;2.13;100.00;100389.97;5039298;28;20036;-73
2021/12/07 02:11:32;;;;;;;45.45;22.98;;;;;;;2.05;100.00;100396.56;5029712;28;20033;-73
2021/12/07 02:16:29;;;;;;;41.95;22.27;;;;;;;1.98;100.00;100390.25;5029118;28;20026;-73
2021/12/07 02:18:58;;;;;;;44.00;23.05;;;;;;;2.00;100.00;100399.44;5032198;28;20144;-73
2021/12/07 02:21:27;;;;;;;46.65;23.20;;;;;;;2.21;100.00;100403.94;5030092;28;20037;-74
2021/12/07 02:23:59;;;;;;;39.00;20.83;;;;;;;2.13;100.00;100395.06;5029796;28;20138;-73
2021/12/07 02:26:27;;;;;;;42.55;21.33;;;;;;;2.01;100.00;100398.50;5004582;28;20116;-73
2021/12/07 02:28:53;;;;;;;46.40;22.27;;;;;;;2.04;100.00;100405.97;5030960;28;20465;-73
2021/12/07 02:31:21;;;;;;;44.88;22.33;;;;;;;2.03;100.00;100404.31;5035127;28;20448;-72
2021/12/07 02:33:46;;;;;;;40.60;21.35;;;;;;;2.05;100.00;100409.34;5030294;28;20235;-73
2021/12/07 02:36:12;;;;;;;39.80;21.60;;;;;;;2.06;100.00;100413.53;5030338;28;20083;-73
2021/12/07 02:38:38;;;;;;;46.97;21.17;;;;;;;2.21;100.00;100411.63;5009231;28;20040;-73
2021/12/07 02:41:04;;;;;;;40.50;19.42;;;;;;;2.14;100.00;100429.16;5009779;28;20029;-73
2021/12/07 02:43:30;;;;;;;39.25;17.67;;;;;;;2.23;100.00;100433.59;5024691;28;20034;-73
2021/12/07 02:45:56;;;;;;;38.58;15.75;;;;;;;2.28;100.00;100428.13;5030355;28;20120;-73
2021/12/07 02:48:23;;;;;;;42.35;14.35;;;;;;;2.29;100.00;100433.16;5034901;28;20075;-73
2021/12/07 02:50:50;;;;;;;39.42;14.23;;;;;;;2.28;100.00;100435.81;5035443;28;20029;-73
2021/12/07 02:53:22;;;;;;;34.40;12.90;;;;;;;2.24;100.00;100442.09;5009025;28;20033;-73
2021/12/07 02:55:50;;;;;;;32.63;12.77;;;;;;;2.18;100.00;100448.47;5034660;28;20025;-73
2021/12/07 02:58:16;;;;;;;33.85;12.27;;;;;;;2.32;100.00;100440.63;5031365;28;20040;-73
2021/12/07 03:00:49;;;;;;;31.88;13.85;;;;;;;2.34;100.00;100458.41;5030513;28;20056;-73
2021/12/07 03:03:16;;;;;;;33.85;11.98;;;;;;;2.39;100.00;100455.50;5035852;28;20033;-73
2021/12/07 03:09:03;;;;;;;34.78;11.43;;;;;;;2.55;100.00;100468.03;5031437;28;20025;-73
2021/12/07 03:27:49;;;;;;;37.30;12.23;;;;;;;2.50;100.00;100512.66;5029043;28;20021;-72
2021/12/07 03:30:14;;;;;;;36.15;11.02;;;;;;;2.59;100.00;100520.63;5032175;28;20487;-72
2021/12/07 03:32:40;;;;;;;39.33;10.52;;;;;;;2.62;100.00;100511.00;5024941;28;20026;-73
2021/12/07 03:35:07;;;;;;;47.15;10.18;;;;;;;2.63;100.00;100514.34;5026236;28;20032;-72
2021/12/07 03:37:33;;;;;;;27.85;9.35;;;;;;;2.69;100.00;100516.47;5028557;28;20025;-73
2021/12/07 03:39:58;;;;;;;29.42;9.10;;;;;;;2.53;100.00;100517.59;5029564;28;20021;-73
2021/12/07 03:42:24;;;;;;;33.92;9.95;;;;;;;2.64;100.00;100527.06;5027942;28;20036;-72
2021/12/07 03:44:50;;;;;;;24.13;8.63;;;;;;;2.58;100.00;100527.50;5009709;28;20522;-73
2021/12/07 03:47:17;;;;;;;40.70;11.95;;;;;;;2.63;100.00;100520.28;5023953;28;20419;-72
2021/12/07 03:49:43;;;;;;;97.03;30.13;;;;;;;2.51;100.00;100529.69;5025435;28;20026;-72
2021/12/07 03:52:09;;;;;;;74.28;19.92;;;;;;;2.53;100.00;100532.13;5025501;28;20022;-73
2021/12/07 03:54:36;;;;;;;68.55;21.38;;;;;;;2.49;100.00;100538.41;5027095;28;20124;-72
2021/12/07 03:57:01;;;;;;;116.50;39.50;;;;;;;2.64;100.00;100542.41;5025804;28;20452;-73
2021/12/07 03:59:28;;;;;;;60.83;24.83;;;;;;;2.63;100.00;100550.19;5028932;28;20033;-73
2021/12/07 04:01:53;;;;;;;116.78;40.78;;;;;;;2.57;100.00;100554.03;5025830;28;20095;-72
2021/12/07 04:04:19;;;;;;;63.35;21.42;;;;;;;2.65;100.00;100549.16;5025256;28;20507;-72
2021/12/07 04:06:45;;;;;;;40.28;12.70;;;;;;;2.49;100.00;100554.56;5001727;28;20163;-73
2021/12/07 04:09:11;;;;;;;29.45;8.38;;;;;;;2.56;100.00;100559.25;5027304;28;20401;-72
2021/12/07 04:11:37;;;;;;;40.58;8.10;;;;;;;2.41;100.00;100564.53;5027821;28;20029;-73
2021/12/07 04:14:03;;;;;;;56.83;13.30;;;;;;;2.49;100.00;100571.69;5027566;28;20492;-72
2021/12/07 04:16:30;;;;;;;28.75;7.70;;;;;;;2.56;100.00;100570.28;5023448;28;20072;-74
2021/12/07 04:18:57;;;;;;;119.18;32.72;;;;;;;2.56;100.00;100572.84;5027543;28;20115;-72
2021/12/07 04:21:23;;;;;;;46.35;11.38;;;;;;;2.48;99.82;100577.72;5027176;28;20038;-73
2021/12/07 04:23:48;;;;;;;57.38;18.45;;;;;;;2.45;100.00;100575.34;5009923;28;20391;-74
2021/12/07 04:26:14;;;;;;;60.45;15.00;;;;;;;2.44;100.00;100576.31;5026932;28;20037;-73
2021/12/07 04:28:41;;;;;;;58.47;21.15;;;;;;;2.39;100.00;100586.84;5031850;28;20017;-73
2021/12/07 04:31:08;;;;;;;50.40;13.95;;;;;;;2.39;100.00;100584.28;5028644;28;20037;-72
2021/12/07 04:33:34;;;;;;;37.05;10.98;;;;;;;2.48;99.92;100586.19;5033115;28;20059;-73
2021/12/07 04:35:59;;;;;;;49.20;12.77;;;;;;;2.40;99.85;100580.81;5030973;28;20029;-73
2021/12/07 04:38:25;;;;;;;30.23;11.40;;;;;;;2.33;100.00;100585.53;5033112;28;20042;-73
2021/12/07 04:40:52;;;;;;;40.67;8.35;;;;;;;2.30;100.00;100590.09;5033487;28;20463;-73
2021/12/07 04:43:17;;;;;;;33.80;8.27;;;;;;;2.32;100.00;100604.38;5031834;28;20507;-72
2021/12/07 04:59:11;;;;;;;32.88;9.30;;;;;;;2.05;100.00;100613.97;5039963;28;20507;-72
2021/12/07 05:01:37;;;;;;;32.40;8.27;;;;;;;2.04;100.00;100618.28;5035872;28;20025;-72
2021/12/07 05:04:11;;;;;;;34.97;8.40;;;;;;;2.08;100.00;100621.44;5021391;28;20033;-72
2021/12/07 05:06:44;;;;;;;30.20;8.52;;;;;;;1.95;100.00;100634.25;5038107;28;20029;-72
2021/12/07 05:14:34;;;;;;;38.28;7.55;;;;;;;2.18;100.00;100630.09;5026021;28;20030;-73
2021/12/07 05:26:08;;;;;;;29.48;6.45;;;;;;;1.94;100.00;100645.38;5037889;28;20848;-72
2021/12/07 05:38:36;;;;;;;34.35;7.57;;;;;;;1.90;100.00;100672.94;5022211;28;20302;-73
2021/12/07 05:41:05;;;;;;;26.83;6.57;;;;;;;1.98;100.00;100677.53;5028293;28;20389;-74
2021/12/07 05:43:31;;;;;;;35.15;8.02;;;;;;;1.83;100.00;100678.53;5027036;28;20120;-73
2021/12/07 05:45:56;;;;;;;31.05;6.82;;;;;;;1.82;100.00;100674.34;5026826;28;20126;-72
2021/12/07 05:48:22;;;;;;;23.83;5.65;;;;;;;1.70;100.00;100684.47;5032702;28;20120;-72
2021/12/07 05:50:47;;;;;;;22.25;5.63;;;;;;;1.92;100.00;100686.44;5030476;28;20034;-72
2021/12/07 05:53:13;;;;;;;28.95;5.57;;;;;;;1.94;100.00;100681.19;5031555;28;20033;-72
2021/12/07 05:55:39;;;;;;;26.38;4.97;;;;;;;1.99;100.00;100671.47;5028398;28;20040;-72
2021/12/07 05:58:08;;;;;;;27.98;5.10;;;;;;;1.88;100.00;100691.84;5027042;28;20037;-73
2021/12/07 06:00:35;;;;;;;33.58;5.30;;;;;;;1.81;100.00;100703.38;5025407;28;20034;-73
2021/12/07 06:03:04;;;;;;;31.00;5.22;;;;;;;1.72;100.00;100708.19;5013578;28;20028;-73
2021/12/07 06:05:31;;;;;;;27.80;5.30;;;;;;;1.82;100.00;100705.84;5051413;28;20037;-72
2021/12/07 06:07:57;;;;;;;24.30;5.45;;;;;;;1.85;100.00;100713.31;5031582;28;20033;-72
2021/12/07 06:10:23;;;;;;;21.83;5.18;;;;;;;1.85;100.00;100725.31;5028202;28;20488;-73
2021/12/07 06:12:49;;;;;;;37.47;5.55;;;;;;;1.82;100.00;100717.81;5025903;28;20476;-73
2021/12/07 06:15:19;;;;;;;18.38;4.78;;;;;;;1.85;100.00;100715.06;5015705;28;20036;-72
2021/12/07 06:17:45;;;;;;;29.27;5.30;;;;;;;1.79;100.00;100731.63;5030448;28;20507;-72
2021/12/07 06:20:11;;;;;;;24.13;4.75;;;;;;;1.88;100.00;100742.97;5024664;28;20507;-72
2021/12/07 06:22:36;;;;;;;40.92;5.43;;;;;;;1.81;100.00;100750.25;5024652;28;20112;-72
2021/12/07 06:25:03;;;;;;;37.63;5.00;;;;;;;1.89;99.99;100735.22;5022110;28;20121;-72
2021/12/07 06:27:29;;;;;;;25.92;5.10;;;;;;;1.89;100.00;100750.56;5028098;28;20412;-72
2021/12/07 06:29:55;;;;;;;26.95;5.25;;;;;;;1.80;100.00;100752.91;5028331;28;20040;-72
2021/12/07 06:32:20;;;;;;;21.77;5.55;;;;;;;1.79;100.00;100759.75;5028686;28;20036;-72
2021/12/07 06:34:46;;;;;;;36.88;6.43;;;;;;;1.75;100.00;100764.25;5024556;28;20042;-72
2021/12/07 06:37:11;;;;;;;31.17;6.22;;;;;;;1.85;100.00;100753.44;5029953;28;20033;-72
2021/12/07 06:39:37;;;;;;;37.13;7.55;;;;;;;1.83;100.00;100748.41;5031515;28;20400;-72
2021/12/07 06:42:03;;;;;;;30.13;6.88;;;;;;;1.85;100.00;100761.09;5024640;28;20045;-73
2021/12/07 06:44:29;;;;;;;23.02;6.80;;;;;;;1.77;100.00;100768.44;5025625;28;20520;-72
2021/12/07 06:46:54;;;;;;;28.80;7.32;;;;;;;1.70;100.00;100756.06;5026953;28;20029;-72
2021/12/07 06:49:21;;;;;;;24.83;7.25;;;;;;;1.76;100.00;100754.84;5025554;28;20527;-73
2021/12/07 06:51:47;;;;;;;26.65;6.97;;;;;;;1.71;100.00;100750.03;5027049;28;20112;-72
2021/12/07 06:54:13;;;;;;;33.30;8.20;;;;;;;1.71;100.00;100744.94;5026102;28;20046;-72
2021/12/07 06:56:39;;;;;;;29.13;7.68;;;;;;;1.61;100.00;100745.63;5026676;28;20041;-74
2021/12/07 06:59:05;;;;;;;32.13;8.45;;;;;;;1.53;100.00;100754.59;5026336;28;20506;-73
2021/12/07 07:01:32;;;;;;;33.22;8.07;;;;;;;1.57;100.00;100750.09;5024725;28;20029;-72
2021/12/07 07:03:57;;;;;;;29.33;7.18;;;;;;;1.67;100.00;100747.75;5032760;28;20301;-72
2021/12/07 07:06:23;;;;;;;29.98;8.82;;;;;;;1.59;100.00;100753.38;5023465;28;20570;-72
2021/12/07 07:08:50;;;;;;;34.63;8.32;;;;;;;1.49;100.00;100753.16;5025834;28;20090;-73
2021/12/07 07:11:17;;;;;;;22.17;7.13;;;;;;;1.52;100.00;100763.16;5025245;28;21215;-73
2021/12/07 07:13:44;;;;;;;29.42;8.48;;;;;;;1.49;100.00;100765.94;5027148;28;20469;-73
2021/12/07 07:16:10;;;;;;;24.17;8.15;;;;;;;1.40;100.00;100758.03;5026098;28;20415;-73
2021/12/07 07:18:36;;;;;;;36.60;7.93;;;;;;;1.39;100.00;100767.41;5031673;28;20034;-72
2021/12/07 07:21:02;;;;;;;22.50;7.15;;;;;;;1.38;100.00;100765.00;5027841;28;20075;-72
2021/12/07 07:23:28;;;;;;;34.22;7.63;;;;;;;1.40;100.00;100765.72;5023441;28;20045;-72
2021/12/07 07:25:55;;;;;;;30.75;7.00;;;;;;;1.44;100.00;100775.63;5028307;28;20037;-74
2021/12/07 07:28:26;;;;;;;28.95;7.07;;;;;;;1.38;100.00;100777.75;5047854;28;20036;-72
2021/12/07 07:30:52;;;;;;;32.50;6.40;;;;;;;1.29;100.00;100782.50;5034463;28;20205;-72
2021/12/07 07:33:18;;;;;;;23.35;5.75;;;;;;;1.27;100.00;100786.09;5028478;28;20047;-73
2021/12/07 07:35:43;;;;;;;19.27;5.85;;;;;;;1.22;100.00;100785.56;5027107;28;20029;-72
2021/12/07 07:38:09;;;;;;;29.38;6.03;;;;;;;1.24;100.00;100784.53;5026802;28;21413;-73
2021/12/07 07:40:34;;;;;;;26.95;6.30;;;;;;;1.33;100.00;100791.63;5028051;28;20036;-73
2021/12/07 07:43:00;;;;;;;28.77;6.88;;;;;;;1.25;100.00;100793.84;5030553;28;20036;-72
2021/12/07 07:45:43;;;;;;;14.68;5.10;;;;;;;1.36;100.00;100788.06;5032496;28;20037;-72
2021/12/07 07:48:08;;;;;;;24.60;5.57;;;;;;;1.36;100.00;100788.06;5032770;28;20037;-73
2021/12/07 07:50:34;;;;;;;21.85;4.47;;;;;;;1.43;100.00;100789.34;5031725;28;20037;-72
2021/12/07 07:52:59;;;;;;;26.67;4.30;;;;;;;1.36;100.00;100788.88;5022059;28;20033;-72
2021/12/07 07:55:25;;;;;;;24.10;4.47;;;;;;;1.37;100.00;100787.13;5033175;28;20033;-73
2021/12/07 07:57:50;;;;;;;26.85;5.30;;;;;;;1.39;100.00;100781.94;5038664;28;20032;-72
2021/12/07 08:00:19;;;;;;;27.60;4.68;;;;;;;1.43;99.71;100781.66;5026339;28;20443;-72
2021/12/07 08:02:46;;;;;;;16.83;3.85;;;;;;;1.44;99.72;100777.38;5025012;28;20037;-72
2021/12/07 08:05:12;;;;;;;31.33;8.55;;;;;;;1.35;100.00;100784.69;5031253;28;20034;-72
2021/12/07 08:07:39;;;;;;;21.42;4.90;;;;;;;1.31;100.00;100790.09;5031829;28;20085;-72
2021/12/07 08:10:07;;;;;;;27.77;5.85;;;;;;;1.31;99.83;100802.88;5029812;28;20504;-73
2021/12/07 08:12:33;;;;;;;20.35;5.38;;;;;;;1.39;99.73;100789.59;5035073;28;20071;-72
2021/12/07 08:14:58;;;;;;;30.40;5.28;;;;;;;1.34;99.75;100795.03;5033646;28;20037;-72
2021/12/07 08:17:24;;;;;;;23.45;4.97;;;;;;;1.34;100.00;100793.28;5031702;28;20076;-72
2021/12/07 08:19:49;;;;;;;24.20;5.15;;;;;;;1.33;99.90;100783.16;5036857;28;20033;-72
2021/12/07 08:22:15;;;;;;;22.08;4.53;;;;;;;1.32;100.00;100787.44;5029100;28;20044;-72
2021/12/07 08:24:40;;;;;;;20.15;4.30;;;;;;;1.29;100.00;100777.41;5030096;28;20037;-72
2021/12/07 08:27:06;;;;;;;19.65;4.53;;;;;;;1.35;99.97;100773.66;5029833;28;20030;-72
2021/12/07 08:29:31;;;;;;;14.18;4.47;;;;;;;1.32;100.00;100778.97;5031707;28;20029;-72
2021/12/07 08:31:57;;;;;;;23.70;5.22;;;;;;;1.30;100.00;100783.31;5032179;28;20033;-72
2021/12/07 08:34:22;;;;;;;31.48;6.00;;;;;;;1.38;100.00;100778.56;5032442;28;20124;-73
2021/12/07 08:36:48;;;;;;;15.55;4.35;;;;;;;1.35;100.00;100788.97;5028497;28;20034;-72
2021/12/07 08:39:15;;;;;;;28.52;5.15;;;;;;;1.56;99.68;100797.00;5036185;28;20025;-73
2021/12/07 08:41:41;;;;;;;23.73;4.78;;;;;;;1.54;99.10;100789.47;5034389;28;20120;-72
2021/12/07 08:44:07;;;;;;;19.85;4.60;;;;;;;1.54;98.77;100797.13;5034933;28;20051;-72
2021/12/07 08:46:33;;;;;;;32.72;5.70;;;;;;;1.49;99.13;100793.25;5014414;28;20022;-72
2021/12/07 08:48:58;;;;;;;27.65;4.00;;;;;;;1.58;98.90;100800.28;5034251;28;20507;-72
2021/12/07 08:51:24;;;;;;;19.48;4.68;;;;;;;1.59;98.97;100807.06;5030646;28;20443;-72
2021/12/07 08:54:19;;;;;;;18.17;4.00;;;;;;;1.57;99.10;100803.78;5038095;28;20506;-72
2021/12/07 09:00:02;;;;;;;29.58;5.13;;;;;;;1.69;98.45;100800.44;5029959;28;20037;-72
2021/12/07 09:02:24;;;;;;;23.88;4.43;;;;;;;1.70;98.29;100804.63;5037325;28;20041;-71
2021/12/07 09:04:51;;;;;;;16.45;4.05;;;;;;;1.76;98.62;100811.09;5032688;28;20063;-71
2021/12/07 09:07:17;;;;;;;16.63;3.85;;;;;;;1.81;98.21;100803.94;5030752;28;20057;-72
2021/12/07 09:09:43;;;;;;;23.55;4.57;;;;;;;1.86;97.67;100813.88;5042401;28;20402;-73
2021/12/07 09:12:14;;;;;;;17.17;4.35;;;;;;;1.83;97.61;100811.50;5015152;28;20133;-72
2021/12/07 09:14:43;;;;;;;26.33;4.03;;;;;;;1.97;97.85;100820.84;5031868;28;20416;-72
2021/12/07 09:17:10;;;;;;;23.50;3.80;;;;;;;2.00;97.92;100818.91;5032829;28;20098;-72
2021/12/07 09:19:36;;;;;;;17.77;3.90;;;;;;;1.94;97.95;100811.63;5031311;28;20059;-72
2021/12/07 09:22:03;;;;;;;26.48;4.70;;;;;;;2.03;98.25;100811.03;5042502;28;20036;-72
2021/12/07 09:24:29;;;;;;;25.48;4.40;;;;;;;2.11;97.99;100806.25;5035438;28;20033;-73
2021/12/07 09:26:56;;;;;;;23.65;4.80;;;;;;;2.19;97.42;100813.41;5030472;28;20396;-73
2021/12/07 09:29:22;;;;;;;19.25;4.20;;;;;;;2.23;97.25;100811.47;5033201;28;20032;-72
2021/12/07 09:31:48;;;;;;;31.40;4.75;;;;;;;2.26;97.35;100806.97;5028969;28;20388;-72
2021/12/07 09:34:13;;;;;;;28.83;5.18;;;;;;;2.36;96.92;100806.38;5031609;28;20022;-73
2021/12/07 09:36:41;;;;;;;25.90;4.97;;;;;;;2.38;96.43;100795.09;5030870;28;20381;-72
2021/12/07 09:39:10;;;;;;;14.10;4.00;;;;;;;2.49;95.83;100802.06;5027870;28;20041;-73
2021/12/07 09:41:35;;;;;;;18.45;4.25;;;;;;;2.54;95.43;100810.22;5026581;28;20036;-72
2021/12/07 09:44:02;;;;;;;37.85;6.30;;;;;;;2.44;96.04;100812.59;5023636;28;20384;-74
2021/12/07 09:46:28;;;;;;;21.17;5.43;;;;;;;2.50;95.79;100804.50;5026770;28;20032;-74
2021/12/07 09:48:53;;;;;;;24.83;4.70;;;;;;;2.55;95.75;100813.63;5043866;28;20112;-73
2021/12/07 09:51:21;;;;;;;26.48;4.38;;;;;;;2.56;95.29;100810.94;5029435;28;20356;-73
2021/12/07 09:53:50;;;;;;;22.80;4.65;;;;;;;2.61;94.92;100803.78;5032034;28;20033;-73
2021/12/07 09:56:15;;;;;;;23.15;6.68;;;;;;;2.63;94.93;100817.28;5031280;28;20037;-72
2021/12/07 09:58:42;;;;;;;36.13;6.35;;;;;;;2.62;95.35;100810.53;5026758;28;20482;-73
2021/12/07 10:01:09;;;;;;;30.65;5.70;;;;;;;2.65;94.83;100804.38;5026912;28;20040;-73
2021/12/07 10:03:36;;;;;;;30.45;5.60;;;;;;;2.76;94.49;100806.22;5035229;28;20025;-72
2021/12/07 10:06:03;;;;;;;27.70;5.75;;;;;;;2.76;94.72;100801.91;5027491;28;20063;-72
2021/12/07 10:08:28;;;;;;;19.00;5.32;;;;;;;2.70;94.89;100803.16;5032307;28;20029;-74
2021/12/07 10:10:56;;;;;;;17.83;4.53;;;;;;;2.68;94.80;100788.81;5019261;28;20477;-72
2021/12/07 10:13:26;;;;;;;30.48;5.13;;;;;;;2.84;94.62;100801.38;5034678;28;20039;-72
2021/12/07 10:15:53;;;;;;;18.60;4.22;;;;;;;2.85;94.13;100790.22;5029489;28;20400;-72
2021/12/07 10:18:31;;;;;;;18.13;4.65;;;;;;;2.79;94.70;100796.59;5029487;28;20396;-73
2021/12/07 10:21:13;;;;;;;21.13;4.68;;;;;;;2.77;94.96;100785.63;5032431;28;20033;-72
2021/12/07 10:23:54;;;;;;;25.40;5.47;;;;;;;2.72;95.12;100780.00;5025882;28;20063;-72
2021/12/07 10:26:32;;;;;;;17.75;4.75;;;;;;;2.94;93.34;100779.34;5031791;28;20484;-73
2021/12/07 10:29:09;;;;;;;26.08;5.50;;;;;;;3.03;93.00;100776.16;5035777;28;20068;-72
2021/12/07 10:31:45;;;;;;;19.85;4.07;;;;;;;2.92;93.62;100782.00;5031719;28;20033;-72
2021/12/07 10:34:19;;;;;;;29.15;6.07;;;;;;;3.00;93.90;100783.22;5028715;28;20473;-72
2021/12/07 10:36:48;;;;;;;19.73;4.47;;;;;;;2.97;93.62;100775.75;5014451;28;20389;-72
2021/12/07 10:39:14;;;;;;;21.30;5.57;;;;;;;3.09;93.27;100772.34;5003345;28;20123;-73
2021/12/07 10:41:53;;;;;;;21.73;5.00;;;;;;;3.02;93.46;100771.94;5002582;28;20150;-72
2021/12/07 10:44:24;;;;;;;20.08;5.40;;;;;;;2.99;94.40;100771.31;5004096;28;20504;-72
2021/12/07 10:46:52;;;;;;;20.23;4.50;;;;;;;3.01;93.77;100769.47;5021417;28;20037;-72
2021/12/07 10:49:23;;;;;;;21.45;4.70;;;;;;;3.02;93.67;100769.38;5030036;28;20075;-73
2021/12/07 10:51:58;;;;;;;23.77;5.20;;;;;;;3.20;92.70;100769.84;5030338;28;20065;-73
2021/12/07 10:54:25;;;;;;;19.35;4.40;;;;;;;3.05;93.01;100768.31;5034988;28;20498;-72
2021/12/07 10:56:51;;;;;;;22.90;4.55;;;;;;;3.24;93.02;100766.13;5033411;28;20045;-75
2021/12/07 10:59:17;;;;;;;19.95;4.18;;;;;;;3.20;92.67;100753.63;5026001;28;20066;-72
2021/12/07 11:01:47;;;;;;;18.80;4.15;;;;;;;3.41;92.32;100756.38;5020782;28;20071;-72
2021/12/07 11:04:29;;;;;;;23.83;4.82;;;;;;;3.37;90.90;100748.13;5021026;28;20083;-72
2021/12/07 11:07:07;;;;;;;24.80;5.68;;;;;;;3.29;92.42;100751.19;5026709;28;20120;-72
2021/12/07 11:09:42;;;;;;;19.95;3.85;;;;;;;3.31;91.32;100744.25;5047402;28;20091;-72
2021/12/07 11:12:10;;;;;;;29.63;4.38;;;;;;;3.44;91.02;100730.53;5026448;28;20684;-72
2021/12/07 11:15:13;;;;;;;16.13;3.72;;;;;;;3.36;91.70;100725.97;5030919;28;20384;-74
2021/12/07 11:17:38;;;;;;;34.25;5.50;;;;;;;3.31;92.13;100713.50;5007128;28;20080;-73
2021/12/07 11:20:05;;;;;;;26.58;6.30;;;;;;;3.43;91.52;100700.72;5000619;28;20384;-72
2021/12/07 11:22:38;;;;;;;30.85;6.40;;;;;;;3.42;91.55;100699.88;5017493;28;20048;-72
2021/12/07 11:25:05;;;;;;;20.55;3.97;;;;;;;3.54;90.68;100693.03;5016007;28;20672;-72
2021/12/07 11:30:27;;;;;;;24.02;4.90;;;;;;;3.59;90.90;100687.56;5026082;28;20568;-72
2021/12/07 11:32:56;;;;;;;26.75;4.43;;;;;;;3.70;88.96;100685.03;5019028;28;20025;-73
2021/12/07 11:35:34;;;;;;;22.48;4.38;;;;;;;3.65;89.12;100680.22;5015597;28;20037;-72
2021/12/07 11:38:05;;;;;;;16.95;3.90;;;;;;;3.74;87.93;100678.75;5011624;28;20080;-72
2021/12/07 11:40:42;;;;;;;16.35;3.75;;;;;;;3.58;88.15;100680.78;5016047;28;20119;-72
2021/12/07 11:43:18;;;;;;;19.02;4.38;;;;;;;3.73;88.23;100681.41;5026158;28;20034;-72
2021/12/07 11:45:46;;;;;;;15.55;4.07;;;;;;;3.76;88.47;100674.31;5032312;28;20052;-72
2021/12/07 11:48:12;;;;;;;15.40;4.28;;;;;;;3.82;88.18;100680.72;5029447;28;20083;-72
2021/12/07 11:50:46;;;;;;;18.20;3.97;;;;;;;3.86;86.37;100674.44;5031237;28;20032;-72
2021/12/07 11:53:20;;;;;;;15.18;3.13;;;;;;;3.98;86.45;100681.22;5032134;28;20037;-72
2021/12/07 11:55:50;;;;;;;19.15;3.33;;;;;;;3.98;85.19;100677.84;5033256;28;20056;-73
2021/12/07 11:58:16;;;;;;;18.42;3.30;;;;;;;3.95;84.89;100681.44;5037011;28;20116;-72
2021/12/07 12:00:49;;;;;;;18.40;4.30;;;;;;;3.94;85.70;100676.41;5027633;28;20046;-72
2021/12/07 12:03:16;;;;;;;;;;;;;;;3.77;86.54;100677.69;5035191;28;20415;-74
2021/12/07 12:05:45;;;;;;;18.25;3.67;;;;;;;3.67;87.80;100667.28;5028880;28;19916;-72
2021/12/07 12:08:13;;;;;;;29.05;4.38;;;;;;;3.74;88.04;100665.91;5034456;28;20088;-72
2021/12/07 12:10:44;;;;;;;21.77;3.70;;;;;;;3.93;86.16;100659.41;5030505;28;20083;-72
2021/12/07 12:13:40;;;;;;;18.27;3.72;;;;;;;3.97;85.40;100656.47;5023587;28;20400;-72
2021/12/07 12:16:15;;;;;;;15.80;2.67;;;;;;;4.20;83.08;100654.75;5025899;28;20025;-72
2021/12/07 12:18:52;;;;;;;15.75;3.03;;;;;;;4.21;82.78;100651.22;5030244;28;20039;-72
2021/12/07 12:21:24;;;;;;;15.15;2.90;;;;;;;4.06;83.12;100647.28;5027566;28;20029;-72
2021/12/07 12:23:53;;;;;;;14.57;2.70;;;;;;;4.05;83.26;100638.75;5033669;28;20091;-72
2021/12/07 12:26:25;;;;;;;14.40;2.47;;;;;;;4.07;83.90;100636.09;5024767;28;20044;-72
2021/12/07 12:28:52;;;;;;;15.27;3.63;;;;;;;4.27;82.88;100634.53;5030422;28;20037;-72
2021/12/07 12:31:19;;;;;;;28.92;3.40;;;;;;;4.20;83.22;100628.22;5027005;28;20056;-74
2021/12/07 12:33:53;;;;;;;15.95;2.90;;;;;;;4.27;82.53;100627.63;5020263;28;20111;-71
2021/12/07 12:36:21;;;;;;;15.73;3.53;;;;;;;4.45;80.29;100616.88;5025433;28;20076;-72
2021/12/07 12:39:08;;;;;;;9.35;2.75;;;;;;;4.45;80.44;100615.13;5021851;28;20047;-72
2021/12/07 12:41:34;;;;;;;10.93;3.25;;;;;;;4.39;81.68;100609.66;5022716;28;20037;-73
2021/12/07 12:44:09;;;;;;;15.77;3.45;;;;;;;4.29;81.96;100619.81;5029558;28;20025;-72
2021/12/07 12:46:37;;;;;;;16.15;3.67;;;;;;;4.45;80.49;100610.00;5027742;28;20047;-72
2021/12/07 12:49:10;;;;;;;15.10;3.78;;;;;;;4.38;81.46;100613.97;5027800;28;20040;-72
2021/12/07 12:51:48;;;;;;;20.20;5.28;;;;;;;4.42;81.78;100612.78;5020734;28;20057;-73
2021/12/07 12:54:15;;;;;;;32.80;9.57;;;;;;;4.37;82.93;100606.38;5028753;28;20040;-72
2021/12/07 12:56:40;;;;;;;49.22;14.57;;;;;;;4.37;81.89;100591.81;5029294;28;20021;-73
2021/12/07 12:59:09;;;;;;;38.63;6.25;;;;;;;4.51;80.52;100589.91;5029658;28;20044;-72
2021/12/07 13:01:46;;;;;;;29.42;8.90;;;;;;;4.47;80.46;100590.13;5025107;28;20466;-72
2021/12/07 13:04:22;;;;;;;25.17;6.22;;;;;;;4.45;79.93;100589.44;4999654;28;20132;-72
2021/12/07 13:07:01;;;;;;;16.65;4.18;;;;;;;4.58;78.01;100591.06;5020790;28;20033;-72
2021/12/07 13:09:31;;;;;;;12.75;3.10;;;;;;;4.56;78.81;100590.34;5021842;28;20039;-73
2021/12/07 13:11:56;;;;;;;14.90;3.88;;;;;;;4.60;78.19;100578.91;5021816;28;20108;-72
2021/12/07 13:14:21;;;;;;;15.68;3.42;;;;;;;4.58;78.31;100571.31;5023849;28;20472;-72
2021/12/07 13:17:07;;;;;;;13.60;3.35;;;;;;;4.55;79.30;100569.00;5021238;28;20047;-72